createdAt,value
2019-04-01T00:02:02.314Z,7.00
2019-04-01T00:04:33.253Z,7.00
2019-04-01T00:07:04.017Z,7.00
2019-04-01T00:09:34.690Z,6.90
2019-04-01T00:12:05.750Z,7.00
2019-04-01T00:14:36.492Z,6.90
2019-04-01T00:17:07.409Z,6.90
2019-04-01T00:19:38.251Z,6.90
2019-04-01T00:22:09.447Z,6.80
2019-04-01T00:24:40.330Z,6.80
2019-04-01T00:27:11.275Z,6.80
2019-04-01T00:29:42.238Z,6.70
2019-04-01T00:32:13.470Z,6.60
2019-04-01T00:34:44.298Z,6.50
2019-04-01T00:37:15.180Z,6.60
2019-04-01T00:39:45.863Z,6.50
2019-04-01T00:42:41.155Z,6.60
2019-04-01T00:45:14.966Z,6.50
2019-04-01T00:47:45.608Z,6.50
2019-04-01T00:50:16.204Z,6.50
2019-04-01T00:52:46.855Z,6.40
2019-04-01T00:55:17.573Z,6.30
2019-04-01T00:57:48.676Z,6.30
2019-04-01T01:00:20.043Z,6.30
2019-04-01T01:02:50.743Z,6.30
2019-04-01T01:05:21.341Z,6.20
2019-04-01T01:07:52.316Z,6.10
2019-04-01T01:10:23.363Z,6.20
2019-04-01T01:12:55.694Z,6.10
2019-04-01T01:15:26.421Z,6.10
2019-04-01T01:17:57.327Z,6.00
2019-04-01T01:20:28.268Z,6.00
2019-04-01T01:22:59.552Z,6.00
2019-04-01T01:25:30.371Z,6.00
2019-04-01T01:28:01.806Z,6.00
2019-04-01T01:30:32.472Z,6.00
2019-04-01T01:33:03.592Z,6.00
2019-04-01T01:35:34.959Z,6.00
2019-04-01T01:38:05.899Z,6.00
2019-04-01T01:40:36.534Z,6.00
2019-04-01T01:43:07.620Z,5.90
2019-04-01T01:45:38.443Z,5.90
2019-04-01T01:48:09.685Z,5.90
2019-04-01T01:50:40.415Z,5.90
2019-04-01T01:53:11.633Z,5.80
2019-04-01T01:55:42.528Z,5.80
2019-04-01T01:58:13.836Z,5.80
2019-04-01T02:00:44.574Z,5.80
2019-04-01T02:03:15.274Z,5.70
2019-04-01T02:05:45.922Z,5.70
2019-04-01T02:08:16.745Z,5.70
2019-04-01T02:10:47.447Z,5.70
2019-04-01T02:13:20.132Z,5.50
2019-04-01T02:15:50.669Z,5.50
2019-04-01T02:18:21.557Z,5.50
2019-04-01T02:20:52.500Z,5.50
2019-04-01T02:23:23.442Z,5.50
2019-04-01T02:25:55.815Z,5.50
2019-04-01T02:28:26.439Z,5.40
2019-04-01T02:30:57.697Z,5.40
2019-04-01T02:33:28.648Z,5.40
2019-04-01T02:35:59.546Z,5.40
2019-04-01T02:38:30.511Z,5.20
2019-04-01T02:41:01.331Z,5.10
2019-04-01T02:43:32.088Z,5.10
2019-04-01T02:46:03.018Z,5.10
2019-04-01T02:48:33.648Z,4.90
2019-04-01T02:51:04.573Z,4.90
2019-04-01T02:53:35.558Z,4.80
2019-04-01T02:56:06.825Z,4.90
2019-04-01T02:58:37.596Z,5.00
2019-04-01T03:01:08.475Z,5.00
2019-04-01T03:03:39.221Z,5.00
2019-04-01T03:06:09.857Z,5.00
2019-04-01T03:08:40.534Z,5.00
2019-04-01T03:11:11.737Z,5.00
2019-04-01T03:13:42.624Z,4.90
2019-04-01T03:16:13.932Z,5.00
2019-04-01T03:18:44.742Z,5.00
2019-04-01T03:21:15.385Z,4.90
2019-04-01T03:23:45.990Z,4.90
2019-04-01T03:26:16.705Z,5.00
2019-04-01T03:28:47.652Z,4.90
2019-04-01T03:31:18.512Z,4.90
2019-04-01T03:33:49.282Z,4.90
2019-04-01T03:36:19.896Z,5.00
2019-04-01T03:38:50.670Z,4.90
2019-04-01T03:41:21.595Z,4.70
2019-04-01T03:43:52.213Z,4.80
2019-04-01T03:46:22.869Z,4.80
2019-04-01T03:48:53.936Z,4.80
2019-04-01T03:51:24.753Z,4.80
2019-04-01T03:53:56.144Z,4.70
2019-04-01T03:56:26.768Z,4.70
2019-04-01T03:58:58.010Z,4.70
2019-04-01T04:01:30.499Z,4.70
2019-04-01T04:04:01.379Z,4.60
2019-04-01T04:06:32.047Z,4.70
2019-04-01T04:09:03.845Z,4.70
2019-04-01T04:11:34.699Z,4.70
2019-04-01T04:14:05.386Z,4.70
2019-04-01T04:16:36.135Z,4.70
2019-04-01T04:19:07.031Z,4.60
2019-04-01T04:21:37.986Z,4.60
2019-04-01T04:24:08.954Z,4.70
2019-04-01T04:26:39.785Z,4.60
2019-04-01T04:29:10.730Z,4.50
2019-04-01T04:31:41.637Z,4.50
2019-04-01T04:34:12.259Z,4.50
2019-04-01T04:36:43.012Z,4.50
2019-04-01T04:39:13.937Z,4.50
2019-04-01T04:41:44.865Z,4.60
2019-04-01T04:44:15.860Z,4.50
2019-04-01T04:46:46.774Z,4.50
2019-04-01T04:49:17.397Z,4.30
2019-04-01T04:51:48.130Z,4.10
2019-04-01T04:54:18.950Z,3.90
2019-04-01T04:56:49.826Z,4.00
2019-04-01T04:59:20.459Z,3.90
2019-04-01T05:01:51.293Z,3.90
2019-04-01T05:04:21.903Z,3.70
2019-04-01T05:06:52.556Z,3.70
2019-04-01T05:09:23.159Z,3.50
2019-04-01T05:11:53.981Z,3.50
2019-04-01T05:14:24.870Z,3.60
2019-04-01T05:16:56.604Z,3.60
2019-04-01T05:19:27.216Z,3.70
2019-04-01T05:21:59.270Z,3.90
2019-04-01T05:24:31.448Z,3.80
2019-04-01T05:27:02.648Z,3.80
2019-04-01T05:29:33.253Z,3.70
2019-04-01T05:32:05.505Z,3.60
2019-04-01T05:34:37.792Z,3.70
2019-04-01T05:37:09.120Z,3.70
2019-04-01T05:39:40.053Z,3.80
2019-04-01T05:42:11.082Z,3.90
2019-04-01T05:44:42.057Z,3.80
2019-04-01T05:47:12.971Z,3.90
2019-04-01T05:49:44.062Z,4.10
2019-04-01T05:52:14.959Z,4.20
2019-04-01T05:54:46.289Z,4.20
2019-04-01T05:57:17.122Z,4.20
2019-04-01T05:59:48.430Z,4.30
2019-04-01T06:02:19.045Z,4.30
2019-04-01T06:04:50.085Z,4.50
2019-04-01T06:07:20.950Z,4.70
2019-04-01T06:09:51.581Z,4.80
2019-04-01T06:12:24.116Z,4.80
2019-04-01T06:14:56.954Z,4.90
2019-04-01T06:17:27.898Z,5.00
2019-04-01T06:19:58.653Z,5.00
2019-04-01T06:22:29.402Z,5.30
2019-04-01T06:25:00.463Z,5.20
2019-04-01T06:27:31.757Z,5.30
2019-04-01T06:30:03.168Z,5.40
2019-04-01T06:32:35.209Z,5.50
2019-04-01T06:35:06.565Z,5.70
2019-04-01T06:37:37.231Z,5.90
2019-04-01T06:40:08.626Z,6.20
2019-04-01T06:42:39.562Z,6.30
2019-04-01T06:45:10.484Z,6.50
2019-04-01T06:47:41.114Z,6.70
2019-04-01T06:50:12.535Z,6.70
2019-04-01T06:52:43.153Z,6.80
2019-04-01T06:55:14.474Z,7.00
2019-04-01T06:57:45.238Z,7.10
2019-04-01T07:00:16.370Z,7.20
2019-04-01T07:02:47.187Z,7.40
2019-04-01T07:05:18.219Z,7.60
2019-04-01T07:07:49.111Z,7.80
2019-04-01T07:10:20.178Z,7.90
2019-04-01T07:12:50.870Z,8.10
2019-04-01T07:15:21.497Z,8.20
2019-04-01T07:17:52.170Z,8.20
2019-04-01T07:20:23.094Z,8.60
2019-04-01T07:22:54.119Z,8.60
2019-04-01T07:25:25.098Z,8.80
2019-04-01T07:27:56.491Z,9.20
2019-04-01T07:30:27.262Z,9.30
2019-04-01T07:32:58.243Z,9.20
2019-04-01T07:35:29.239Z,9.10
2019-04-01T07:38:00.447Z,9.00
2019-04-01T07:40:31.544Z,9.00
2019-04-01T07:43:02.533Z,9.20
2019-04-01T07:45:33.287Z,9.60
2019-04-01T07:48:04.368Z,9.50
2019-04-01T07:50:35.303Z,9.90
2019-04-01T07:53:06.625Z,9.90
2019-04-01T07:55:37.434Z,10.00
2019-04-01T07:58:08.556Z,9.90
2019-04-01T08:00:39.578Z,10.20
2019-04-01T08:03:13.821Z,10.60
2019-04-01T08:05:44.624Z,10.60
2019-04-01T08:08:15.548Z,10.80
2019-04-01T08:10:46.240Z,11.10
2019-04-01T08:13:17.363Z,11.20
2019-04-01T08:15:48.238Z,11.30
2019-04-01T08:18:19.149Z,11.60
2019-04-01T08:20:49.924Z,11.30
2019-04-01T08:23:20.601Z,11.40
2019-04-01T08:25:51.366Z,11.50
2019-04-01T08:28:23.941Z,11.40
2019-04-01T08:30:55.937Z,11.70
2019-04-01T08:33:26.634Z,11.80
2019-04-01T08:35:57.509Z,12.00
2019-04-01T08:38:28.725Z,12.50
2019-04-01T08:40:59.742Z,12.40
2019-04-01T08:43:30.435Z,12.20
2019-04-01T08:46:01.582Z,12.40
2019-04-01T08:48:35.462Z,12.40
2019-04-01T08:51:04.837Z,12.60
2019-04-01T08:53:35.946Z,13.50
2019-04-01T08:56:06.692Z,13.80
2019-04-01T08:58:37.639Z,13.30
2019-04-01T09:01:08.683Z,13.10
2019-04-01T09:03:39.505Z,13.20
2019-04-01T09:06:10.925Z,13.20
2019-04-01T09:08:41.797Z,13.60
2019-04-01T09:11:12.987Z,14.00
2019-04-01T09:13:45.706Z,14.10
2019-04-01T09:16:18.142Z,13.80
2019-04-01T09:18:48.803Z,14.60
2019-04-01T09:21:19.707Z,13.80
2019-04-01T09:23:52.137Z,14.20
2019-04-01T09:26:22.831Z,14.50
2019-04-01T09:28:53.508Z,14.40
2019-04-01T09:31:24.729Z,14.40
2019-04-01T09:33:56.956Z,14.90
2019-04-01T09:36:28.036Z,15.20
2019-04-01T09:38:58.685Z,15.40
2019-04-01T09:41:29.798Z,15.10
2019-04-01T09:44:01.091Z,14.50
2019-04-01T09:46:31.739Z,14.70
2019-04-01T09:49:02.739Z,15.20
2019-04-01T09:51:47.554Z,16.10
2019-04-01T09:54:08.676Z,15.90
2019-04-01T09:56:39.513Z,15.90
2019-04-01T09:59:10.720Z,15.70
2019-04-01T10:01:41.831Z,15.20
2019-04-01T10:04:12.774Z,15.50
2019-04-01T10:06:43.737Z,15.60
2019-04-01T10:09:14.921Z,15.20
2019-04-01T10:11:45.814Z,15.10
2019-04-01T10:14:16.522Z,15.40
2019-04-01T10:16:47.444Z,15.90
2019-04-01T10:19:18.131Z,16.90
2019-04-01T10:21:48.888Z,16.00
2019-04-01T10:24:19.712Z,16.50
2019-04-01T10:26:50.642Z,16.10
2019-04-01T10:29:21.556Z,16.20
2019-04-01T10:31:52.260Z,16.00
2019-04-01T10:34:22.963Z,16.00
2019-04-01T10:36:53.770Z,16.40
2019-04-01T10:39:24.805Z,16.10
2019-04-01T10:41:57.218Z,15.80
2019-04-01T10:44:27.935Z,16.20
2019-04-01T10:46:59.015Z,16.70
2019-04-01T10:49:32.131Z,16.60
2019-04-01T10:52:02.370Z,16.30
2019-04-01T10:54:33.077Z,16.10
2019-04-01T10:57:03.846Z,17.00
2019-04-01T10:59:34.714Z,16.60
2019-04-01T11:02:05.651Z,16.90
2019-04-01T11:04:36.701Z,16.60
2019-04-01T11:07:08.031Z,16.40
2019-04-01T11:09:38.941Z,16.90
2019-04-01T11:12:09.739Z,16.80
2019-04-01T11:14:40.659Z,16.70
2019-04-01T11:17:11.392Z,16.30
2019-04-01T11:19:41.965Z,16.50
2019-04-01T11:22:12.977Z,16.40
2019-04-01T11:24:43.837Z,16.40
2019-04-01T11:27:15.119Z,16.70
2019-04-01T11:29:45.845Z,16.50
2019-04-01T11:32:16.692Z,16.80
2019-04-01T11:34:47.605Z,17.00
2019-04-01T11:37:18.262Z,17.00
2019-04-01T11:39:49.036Z,16.70
2019-04-01T11:42:20.186Z,16.60
2019-04-01T11:44:52.530Z,16.70
2019-04-01T11:47:23.941Z,17.00
2019-04-01T11:49:56.274Z,17.10
2019-04-01T11:52:27.898Z,17.00
2019-04-01T11:54:59.019Z,17.00
2019-04-01T11:57:29.870Z,17.00
2019-04-01T12:00:00.825Z,17.00
2019-04-01T12:02:31.804Z,17.30
2019-04-01T12:05:03.072Z,17.40
2019-04-01T12:07:34.254Z,17.70
2019-04-01T12:10:07.541Z,17.10
2019-04-01T12:12:38.130Z,17.00
2019-04-01T12:15:12.277Z,17.20
2019-04-01T12:17:43.013Z,17.20
2019-04-01T12:20:15.760Z,17.00
2019-04-01T12:22:46.396Z,17.10
2019-04-01T12:25:17.128Z,17.30
2019-04-01T12:27:48.080Z,17.30
2019-04-01T12:30:19.026Z,17.20
2019-04-01T12:32:50.008Z,16.80
2019-04-01T12:35:20.964Z,16.70
2019-04-01T12:37:51.994Z,16.80
2019-04-01T12:40:22.834Z,16.80
2019-04-01T12:42:53.650Z,16.90
2019-04-01T12:45:24.922Z,16.60
2019-04-01T12:47:57.318Z,16.80
2019-04-01T12:50:28.010Z,17.10
2019-04-01T12:52:59.188Z,17.00
2019-04-01T12:55:29.874Z,16.70
2019-04-01T12:58:00.787Z,17.10
2019-04-01T13:00:31.625Z,17.20
2019-04-01T13:03:02.374Z,17.20
2019-04-01T13:05:33.011Z,17.20
2019-04-01T13:08:04.029Z,17.40
2019-04-01T13:10:35.042Z,17.70
2019-04-01T13:13:05.801Z,18.00
2019-04-01T13:15:36.454Z,18.00
2019-04-01T13:18:07.688Z,17.60
2019-04-01T13:20:38.570Z,17.20
2019-04-01T13:23:09.255Z,17.30
2019-04-01T13:25:40.102Z,17.20
2019-04-01T13:28:11.319Z,17.30
2019-04-01T13:30:42.135Z,17.40
2019-04-01T13:33:13.168Z,17.20
2019-04-01T13:35:43.948Z,17.30
2019-04-01T13:38:15.234Z,16.80
2019-04-01T13:40:46.178Z,16.80
2019-04-01T13:43:17.164Z,16.70
2019-04-01T13:45:50.147Z,16.60
2019-04-01T13:48:21.133Z,16.60
2019-04-01T13:50:52.015Z,16.50
2019-04-01T13:53:22.968Z,16.70
2019-04-01T13:55:53.696Z,16.60
2019-04-01T13:58:24.418Z,16.60
2019-04-01T14:00:55.192Z,16.70
2019-04-01T14:03:26.163Z,17.00
2019-04-01T14:05:57.508Z,16.80
2019-04-01T14:08:28.246Z,16.80
2019-04-01T14:10:59.340Z,16.70
2019-04-01T14:13:30.038Z,16.80
2019-04-01T14:16:01.347Z,16.90
2019-04-01T14:18:32.235Z,16.70
2019-04-01T14:21:15.125Z,16.60
2019-04-01T14:23:36.894Z,16.60
2019-04-01T14:26:07.557Z,16.50
2019-04-01T14:28:38.532Z,16.40
2019-04-01T14:31:09.432Z,16.40
2019-04-01T14:33:40.731Z,16.40
2019-04-01T14:36:11.440Z,16.40
2019-04-01T14:38:42.172Z,16.30
2019-04-01T14:41:13.267Z,16.40
2019-04-01T14:43:44.095Z,16.40
2019-04-01T14:46:15.617Z,16.40
2019-04-01T14:48:46.287Z,16.40
2019-04-01T14:51:17.237Z,16.40
2019-04-01T14:53:48.154Z,16.40
2019-04-01T14:56:19.636Z,16.50
2019-04-01T14:58:50.748Z,16.50
2019-04-01T15:01:21.553Z,16.50
2019-04-01T15:03:52.444Z,16.50
2019-04-01T15:06:23.371Z,16.60
2019-04-01T15:08:54.190Z,16.60
2019-04-01T15:11:25.209Z,16.50
2019-04-01T15:14:00.127Z,16.60
2019-04-01T15:16:30.367Z,16.60
2019-04-01T15:19:01.470Z,16.50
2019-04-01T15:21:32.484Z,16.40
2019-04-01T15:24:03.585Z,16.40
2019-04-01T15:26:34.679Z,16.50
2019-04-01T15:29:05.484Z,16.40
2019-04-01T15:31:36.218Z,16.40
2019-04-01T15:34:09.354Z,16.50
2019-04-01T15:36:39.901Z,16.50
2019-04-01T15:39:13.468Z,16.50
2019-04-01T15:41:45.315Z,16.40
2019-04-01T15:44:16.571Z,16.30
2019-04-01T15:46:47.629Z,16.20
2019-04-01T15:49:18.493Z,16.20
2019-04-01T15:51:49.442Z,16.10
2019-04-01T15:54:20.455Z,16.10
2019-04-01T15:56:51.798Z,16.00
2019-04-01T15:59:22.817Z,15.90
2019-04-01T16:01:53.659Z,15.90
2019-04-01T16:04:24.388Z,15.90
2019-04-01T16:06:55.598Z,15.90
2019-04-01T16:09:26.518Z,15.80
2019-04-01T16:11:58.814Z,15.80
2019-04-01T16:14:35.646Z,15.80
2019-04-01T16:17:06.582Z,15.80
2019-04-01T16:19:37.478Z,15.70
2019-04-01T16:22:09.727Z,15.70
2019-04-01T16:24:40.592Z,15.70
2019-04-01T16:27:11.533Z,15.60
2019-04-01T16:29:42.405Z,15.60
2019-04-01T16:32:13.668Z,15.60
2019-04-01T16:34:44.479Z,15.60
2019-04-01T16:37:15.648Z,15.50
2019-04-01T16:39:46.481Z,15.40
2019-04-01T16:42:17.478Z,15.40
2019-04-01T16:44:48.345Z,15.40
2019-04-01T16:47:19.040Z,15.40
2019-04-01T16:49:49.680Z,15.40
2019-04-01T16:52:20.531Z,15.40
2019-04-01T16:55:02.555Z,15.30
2019-04-01T16:57:34.793Z,15.30
2019-04-01T17:00:08.846Z,15.30
2019-04-01T17:02:39.613Z,15.20
2019-04-01T17:05:11.076Z,15.10
2019-04-01T17:07:42.083Z,15.10
2019-04-01T17:10:21.875Z,15.00
2019-04-01T17:12:54.191Z,15.00
2019-04-01T17:15:24.867Z,15.00
2019-04-01T17:17:55.667Z,14.90
2019-04-01T17:20:26.426Z,15.00
2019-04-01T17:22:57.973Z,15.00
2019-04-01T17:25:28.832Z,14.80
2019-04-01T17:27:59.805Z,14.70
2019-04-01T17:30:30.615Z,14.60
2019-04-01T17:33:01.662Z,14.60
2019-04-01T17:35:32.663Z,14.50
2019-04-01T17:38:03.741Z,14.50
2019-04-01T17:40:34.716Z,14.40
2019-04-01T17:43:06.184Z,14.30
2019-04-01T17:45:40.317Z,14.30
2019-04-01T17:48:12.407Z,14.20
2019-04-01T17:50:43.085Z,14.20
2019-04-01T17:53:14.242Z,14.00
2019-04-01T17:55:45.645Z,13.90
2019-04-01T17:58:17.107Z,13.90
2019-04-01T18:00:53.681Z,13.80
2019-04-01T18:03:24.667Z,13.70
2019-04-01T18:05:55.603Z,13.70
2019-04-01T18:08:27.666Z,13.50
2019-04-01T18:10:58.680Z,13.50
2019-04-01T18:13:29.611Z,13.40
2019-04-01T18:16:00.726Z,13.30
2019-04-01T18:18:34.038Z,13.40
2019-04-01T18:21:04.062Z,13.40
2019-04-01T18:23:34.811Z,13.30
2019-04-01T18:26:05.934Z,13.20
2019-04-01T18:28:36.679Z,13.20
2019-04-01T18:31:07.955Z,13.20
2019-04-01T18:33:38.749Z,13.10
2019-04-01T18:36:09.749Z,13.00
2019-04-01T18:38:41.103Z,13.00
2019-04-01T18:41:11.911Z,12.90
2019-04-01T18:43:42.781Z,12.90
2019-04-01T18:46:13.880Z,12.80
2019-04-01T18:48:45.102Z,12.80
2019-04-01T18:51:16.218Z,12.80
2019-04-01T18:53:47.391Z,12.80
2019-04-01T18:56:18.284Z,12.80
2019-04-01T18:58:59.616Z,12.60
2019-04-01T19:01:30.728Z,12.50
2019-04-01T19:04:02.034Z,12.50
2019-04-01T19:06:32.729Z,12.40
2019-04-01T19:09:09.471Z,12.30
2019-04-01T19:11:38.055Z,12.40
2019-04-01T19:14:09.108Z,12.30
2019-04-01T19:16:39.894Z,12.10
2019-04-01T19:19:11.290Z,12.10
2019-04-01T19:21:42.310Z,12.00
2019-04-01T19:24:13.207Z,12.00
2019-04-01T19:26:43.901Z,12.00
2019-04-01T19:29:16.045Z,12.00
2019-04-01T19:31:47.025Z,12.00
2019-04-01T19:34:17.757Z,11.80
2019-04-01T19:36:48.580Z,11.70
2019-04-01T19:39:19.340Z,11.60
2019-04-01T19:41:50.191Z,11.40
2019-04-01T19:44:21.091Z,11.30
2019-04-01T19:46:52.041Z,11.40
2019-04-01T19:49:23.104Z,11.40
2019-04-01T19:51:53.909Z,11.40
2019-04-01T19:54:31.110Z,11.30
2019-04-01T19:56:59.112Z,11.20
2019-04-01T19:59:30.108Z,11.10
2019-04-01T20:02:01.192Z,11.10
2019-04-01T20:04:33.996Z,11.10
2019-04-01T20:07:05.143Z,11.00
2019-04-01T20:09:35.890Z,10.90
2019-04-01T20:12:06.905Z,10.80
2019-04-01T20:14:37.909Z,10.80
2019-04-01T20:17:09.953Z,11.00
2019-04-01T20:19:40.919Z,10.90
2019-04-01T20:22:11.696Z,10.80
2019-04-01T20:24:42.404Z,10.70
2019-04-01T20:27:13.129Z,10.70
2019-04-01T20:29:43.912Z,10.60
2019-04-01T20:32:17.606Z,10.60
2019-04-01T20:34:56.762Z,10.60
2019-04-01T20:37:19.860Z,10.50
2019-04-01T20:39:50.598Z,10.60
2019-04-01T20:42:21.323Z,10.40
2019-04-01T20:44:52.127Z,10.40
2019-04-01T20:47:22.959Z,10.40
2019-04-01T20:49:54.033Z,10.60
2019-04-01T20:52:26.970Z,10.50
2019-04-01T20:54:58.285Z,10.40
2019-04-01T20:57:28.991Z,10.30
2019-04-01T21:00:00.195Z,10.20
2019-04-01T21:02:30.872Z,10.20
2019-04-01T21:05:01.823Z,10.20
2019-04-01T21:07:32.727Z,10.10
2019-04-01T21:10:03.650Z,10.10
2019-04-01T21:12:36.939Z,10.10
2019-04-01T21:15:08.884Z,10.10
2019-04-01T21:17:40.104Z,10.10
2019-04-01T21:20:12.218Z,10.00
2019-04-01T21:22:43.955Z,9.90
2019-04-01T21:25:15.112Z,9.90
2019-04-01T21:27:46.124Z,9.90
2019-04-01T21:30:17.159Z,9.80
2019-04-01T21:32:47.908Z,9.60
2019-04-01T21:35:18.897Z,9.80
2019-04-01T21:37:49.858Z,9.70
2019-04-01T21:40:20.553Z,9.70
2019-04-01T21:42:51.512Z,9.60
2019-04-01T21:45:22.818Z,9.50
2019-04-01T21:47:53.531Z,9.10
2019-04-01T21:50:24.192Z,9.00
2019-04-01T21:52:55.020Z,9.00
2019-04-01T21:55:25.947Z,8.90
2019-04-01T21:57:58.259Z,8.80
2019-04-01T22:00:38.690Z,8.80
2019-04-01T22:03:09.587Z,8.70
2019-04-01T22:05:40.245Z,8.70
2019-04-01T22:08:11.440Z,8.60
2019-04-01T22:10:42.087Z,8.50
2019-04-01T22:13:13.008Z,8.60
2019-04-01T22:15:43.619Z,8.80
2019-04-01T22:18:14.734Z,8.60
2019-04-01T22:20:45.516Z,8.70
2019-04-01T22:23:16.309Z,8.30
2019-04-01T22:25:47.062Z,8.20
2019-04-01T22:28:17.976Z,8.20
2019-04-01T22:30:48.628Z,8.30
2019-04-01T22:33:19.281Z,8.10
2019-04-01T22:35:50.050Z,8.10
2019-04-01T22:38:25.333Z,8.00
2019-04-01T22:40:53.404Z,7.80
2019-04-01T22:43:25.302Z,7.80
2019-04-01T22:45:56.225Z,7.90
2019-04-01T22:48:26.851Z,7.70
2019-04-01T22:50:58.603Z,7.70
2019-04-01T22:53:29.262Z,7.70
2019-04-01T22:56:00.280Z,7.80
2019-04-01T22:58:31.153Z,7.60
2019-04-01T23:01:02.342Z,7.60
2019-04-01T23:03:33.191Z,7.60
2019-04-01T23:06:04.125Z,7.40
2019-04-01T23:08:35.075Z,7.40
2019-04-01T23:11:06.333Z,7.40
2019-04-01T23:13:37.092Z,7.40
2019-04-01T23:16:08.420Z,7.30
2019-04-01T23:18:39.367Z,7.50
2019-04-01T23:21:10.357Z,7.30
2019-04-01T23:23:41.170Z,7.30
2019-04-01T23:26:12.407Z,7.30
2019-04-01T23:28:43.103Z,7.20
2019-04-01T23:31:13.806Z,7.10
2019-04-01T23:33:45.170Z,7.10
2019-04-01T23:36:16.478Z,7.10
2019-04-01T23:38:47.355Z,7.00
2019-04-01T23:41:18.286Z,6.90
2019-04-01T23:43:49.219Z,6.80
2019-04-01T23:46:20.189Z,6.70
2019-04-01T23:48:50.944Z,6.60
2019-04-01T23:51:21.574Z,6.50
2019-04-01T23:53:52.215Z,6.50
2019-04-01T23:56:23.099Z,6.50
2019-04-01T23:58:53.724Z,6.40
